sensor_id;sensor_type;location;lat;lon;timestamp;P1;durP1;ratioP1;P2;durP2;ratioP2
70605;SDS011;58173;52.500;5.494;2024-03-07T00:00:29;47.38;;;16.27;;
70605;SDS011;58173;52.500;5.494;2024-03-07T00:02:58;43.90;;;15.77;;
70605;SDS011;58173;52.500;5.494;2024-03-07T00:05:26;41.38;;;16.15;;
70605;SDS011;58173;52.500;5.494;2024-03-07T00:07:54;41.92;;;17.60;;
70605;SDS011;58173;52.500;5.494;2024-03-07T00:10:21;43.20;;;16.25;;
70605;SDS011;58173;52.500;5.494;2024-03-07T00:12:49;43.72;;;15.85;;
70605;SDS011;58173;52.500;5.494;2024-03-07T00:15:16;41.00;;;16.10;;
70605;SDS011;58173;52.500;5.494;2024-03-07T00:17:44;44.25;;;17.40;;
70605;SDS011;58173;52.500;5.494;2024-03-07T00:20:17;44.70;;;16.30;;
70605;SDS011;58173;52.500;5.494;2024-03-07T00:22:46;43.15;;;17.13;;
70605;SDS011;58173;52.500;5.494;2024-03-07T00:25:14;47.42;;;16.95;;
70605;SDS011;58173;52.500;5.494;2024-03-07T00:27:46;42.08;;;16.05;;
70605;SDS011;58173;52.500;5.494;2024-03-07T00:30:13;47.85;;;17.92;;
70605;SDS011;58173;52.500;5.494;2024-03-07T00:32:41;41.85;;;17.48;;
70605;SDS011;58173;52.500;5.494;2024-03-07T00:35:08;43.47;;;16.20;;
70605;SDS011;58173;52.500;5.494;2024-03-07T00:37:36;41.92;;;16.08;;
70605;SDS011;58173;52.500;5.494;2024-03-07T00:40:03;45.03;;;17.88;;
70605;SDS011;58173;52.500;5.494;2024-03-07T00:42:30;41.80;;;16.95;;
70605;SDS011;58173;52.500;5.494;2024-03-07T00:44:58;43.25;;;16.75;;
70605;SDS011;58173;52.500;5.494;2024-03-07T00:47:25;43.03;;;16.05;;
70605;SDS011;58173;52.500;5.494;2024-03-07T00:49:52;43.05;;;15.82;;
70605;SDS011;58173;52.500;5.494;2024-03-07T00:52:35;44.90;;;17.02;;
70605;SDS011;58173;52.500;5.494;2024-03-07T00:55:02;44.85;;;15.82;;
70605;SDS011;58173;52.500;5.494;2024-03-07T00:57:29;42.13;;;15.70;;
70605;SDS011;58173;52.500;5.494;2024-03-07T00:59:57;44.20;;;15.45;;
70605;SDS011;58173;52.500;5.494;2024-03-07T01:02:24;41.35;;;15.60;;
70605;SDS011;58173;52.500;5.494;2024-03-07T01:04:52;43.70;;;16.33;;
70605;SDS011;58173;52.500;5.494;2024-03-07T01:07:20;46.78;;;16.27;;
70605;SDS011;58173;52.500;5.494;2024-03-07T01:09:50;45.22;;;16.75;;
70605;SDS011;58173;52.500;5.494;2024-03-07T01:12:17;41.85;;;15.60;;
70605;SDS011;58173;52.500;5.494;2024-03-07T01:14:48;44.70;;;15.77;;
70605;SDS011;58173;52.500;5.494;2024-03-07T01:17:16;48.38;;;16.98;;
70605;SDS011;58173;52.500;5.494;2024-03-07T01:19:43;39.47;;;15.73;;
70605;SDS011;58173;52.500;5.494;2024-03-07T01:22:10;42.60;;;15.77;;
70605;SDS011;58173;52.500;5.494;2024-03-07T01:24:37;46.15;;;16.88;;
70605;SDS011;58173;52.500;5.494;2024-03-07T01:27:06;39.20;;;14.80;;
70605;SDS011;58173;52.500;5.494;2024-03-07T01:29:33;42.35;;;14.98;;
70605;SDS011;58173;52.500;5.494;2024-03-07T01:32:00;41.30;;;15.75;;
70605;SDS011;58173;52.500;5.494;2024-03-07T01:34:29;44.72;;;16.10;;
70605;SDS011;58173;52.500;5.494;2024-03-07T01:36:56;38.38;;;14.05;;
70605;SDS011;58173;52.500;5.494;2024-03-07T01:39:23;45.10;;;15.70;;
70605;SDS011;58173;52.500;5.494;2024-03-07T01:41:51;46.00;;;16.27;;
70605;SDS011;58173;52.500;5.494;2024-03-07T01:44:18;40.65;;;15.05;;
70605;SDS011;58173;52.500;5.494;2024-03-07T01:46:45;50.67;;;17.25;;
70605;SDS011;58173;52.500;5.494;2024-03-07T01:49:12;46.97;;;18.02;;
70605;SDS011;58173;52.500;5.494;2024-03-07T01:51:39;49.50;;;16.05;;
70605;SDS011;58173;52.500;5.494;2024-03-07T01:54:07;46.78;;;16.88;;
70605;SDS011;58173;52.500;5.494;2024-03-07T01:56:37;46.92;;;17.08;;
70605;SDS011;58173;52.500;5.494;2024-03-07T01:59:05;49.33;;;17.42;;
70605;SDS011;58173;52.500;5.494;2024-03-07T02:01:33;45.50;;;15.85;;
70605;SDS011;58173;52.500;5.494;2024-03-07T02:06:56;47.17;;;16.75;;
70605;SDS011;58173;52.500;5.494;2024-03-07T02:09:24;46.95;;;17.63;;
70605;SDS011;58173;52.500;5.494;2024-03-07T02:11:51;45.42;;;16.92;;
70605;SDS011;58173;52.500;5.494;2024-03-07T02:14:19;51.42;;;17.55;;
70605;SDS011;58173;52.500;5.494;2024-03-07T02:16:46;51.35;;;17.30;;
70605;SDS011;58173;52.500;5.494;2024-03-07T02:19:14;50.53;;;17.55;;
70605;SDS011;58173;52.500;5.494;2024-03-07T02:21:41;48.40;;;16.73;;
70605;SDS011;58173;52.500;5.494;2024-03-07T02:24:08;49.33;;;15.68;;
70605;SDS011;58173;52.500;5.494;2024-03-07T02:26:36;44.58;;;15.93;;
70605;SDS011;58173;52.500;5.494;2024-03-07T02:29:05;51.67;;;18.08;;
70605;SDS011;58173;52.500;5.494;2024-03-07T02:31:33;41.97;;;15.68;;
70605;SDS011;58173;52.500;5.494;2024-03-07T02:34:03;45.00;;;17.67;;
70605;SDS011;58173;52.500;5.494;2024-03-07T02:36:30;44.33;;;17.08;;
70605;SDS011;58173;52.500;5.494;2024-03-07T02:38:58;49.50;;;17.67;;
70605;SDS011;58173;52.500;5.494;2024-03-07T02:41:26;53.83;;;17.95;;
70605;SDS011;58173;52.500;5.494;2024-03-07T02:43:53;45.65;;;16.75;;
70605;SDS011;58173;52.500;5.494;2024-03-07T02:46:20;47.42;;;16.75;;
70605;SDS011;58173;52.500;5.494;2024-03-07T02:48:48;48.30;;;17.70;;
70605;SDS011;58173;52.500;5.494;2024-03-07T02:51:15;49.42;;;17.55;;
70605;SDS011;58173;52.500;5.494;2024-03-07T02:54:00;43.63;;;15.82;;
70605;SDS011;58173;52.500;5.494;2024-03-07T02:56:31;49.67;;;17.75;;
70605;SDS011;58173;52.500;5.494;2024-03-07T02:59:01;49.58;;;17.80;;
70605;SDS011;58173;52.500;5.494;2024-03-07T03:01:30;44.75;;;17.70;;
70605;SDS011;58173;52.500;5.494;2024-03-07T03:03:57;49.58;;;17.83;;
70605;SDS011;58173;52.500;5.494;2024-03-07T03:06:24;47.22;;;17.60;;
70605;SDS011;58173;52.500;5.494;2024-03-07T03:08:52;49.08;;;16.80;;
70605;SDS011;58173;52.500;5.494;2024-03-07T03:11:20;49.65;;;18.13;;
70605;SDS011;58173;52.500;5.494;2024-03-07T03:13:48;46.25;;;17.38;;
70605;SDS011;58173;52.500;5.494;2024-03-07T03:16:15;51.50;;;18.23;;
70605;SDS011;58173;52.500;5.494;2024-03-07T03:18:45;48.15;;;17.27;;
70605;SDS011;58173;52.500;5.494;2024-03-07T03:21:14;46.97;;;17.55;;
70605;SDS011;58173;52.500;5.494;2024-03-07T03:23:42;47.45;;;17.42;;
70605;SDS011;58173;52.500;5.494;2024-03-07T03:26:09;51.20;;;16.52;;
70605;SDS011;58173;52.500;5.494;2024-03-07T03:28:37;47.70;;;17.40;;
70605;SDS011;58173;52.500;5.494;2024-03-07T03:31:05;53.08;;;18.42;;
70605;SDS011;58173;52.500;5.494;2024-03-07T03:33:33;42.97;;;15.73;;
70605;SDS011;58173;52.500;5.494;2024-03-07T03:36:00;48.17;;;17.50;;
70605;SDS011;58173;52.500;5.494;2024-03-07T03:38:27;54.00;;;18.70;;
70605;SDS011;58173;52.500;5.494;2024-03-07T03:40:55;47.60;;;17.50;;
70605;SDS011;58173;52.500;5.494;2024-03-07T03:43:22;46.28;;;17.70;;
70605;SDS011;58173;52.500;5.494;2024-03-07T03:45:50;52.25;;;17.52;;
70605;SDS011;58173;52.500;5.494;2024-03-07T03:48:17;46.42;;;17.30;;
70605;SDS011;58173;52.500;5.494;2024-03-07T03:50:44;50.15;;;17.52;;
70605;SDS011;58173;52.500;5.494;2024-03-07T03:53:13;45.33;;;16.83;;
70605;SDS011;58173;52.500;5.494;2024-03-07T03:55:40;46.20;;;17.35;;
70605;SDS011;58173;52.500;5.494;2024-03-07T03:58:07;48.92;;;18.00;;
70605;SDS011;58173;52.500;5.494;2024-03-07T04:00:39;50.20;;;17.45;;
70605;SDS011;58173;52.500;5.494;2024-03-07T04:03:06;48.20;;;17.88;;
70605;SDS011;58173;52.500;5.494;2024-03-07T04:05:34;47.25;;;17.98;;
70605;SDS011;58173;52.500;5.494;2024-03-07T04:08:01;51.50;;;17.20;;
70605;SDS011;58173;52.500;5.494;2024-03-07T04:10:30;46.38;;;17.17;;
70605;SDS011;58173;52.500;5.494;2024-03-07T04:12:57;45.38;;;17.02;;
70605;SDS011;58173;52.500;5.494;2024-03-07T04:15:25;48.85;;;17.13;;
70605;SDS011;58173;52.500;5.494;2024-03-07T04:17:53;50.50;;;17.70;;
70605;SDS011;58173;52.500;5.494;2024-03-07T04:20:20;43.15;;;15.52;;
70605;SDS011;58173;52.500;5.494;2024-03-07T04:22:47;44.90;;;17.05;;
70605;SDS011;58173;52.500;5.494;2024-03-07T04:25:18;41.92;;;16.10;;
70605;SDS011;58173;52.500;5.494;2024-03-07T04:27:46;44.60;;;17.23;;
70605;SDS011;58173;52.500;5.494;2024-03-07T04:30:15;44.42;;;17.45;;
70605;SDS011;58173;52.500;5.494;2024-03-07T04:32:43;46.20;;;17.73;;
70605;SDS011;58173;52.500;5.494;2024-03-07T04:35:11;46.90;;;17.23;;
70605;SDS011;58173;52.500;5.494;2024-03-07T04:37:43;47.03;;;17.10;;
70605;SDS011;58173;52.500;5.494;2024-03-07T04:40:11;46.58;;;17.02;;
70605;SDS011;58173;52.500;5.494;2024-03-07T04:42:45;43.83;;;17.10;;
70605;SDS011;58173;52.500;5.494;2024-03-07T04:45:12;47.45;;;18.13;;
70605;SDS011;58173;52.500;5.494;2024-03-07T04:47:40;38.13;;;13.73;;
70605;SDS011;58173;52.500;5.494;2024-03-07T04:50:08;42.13;;;15.63;;
70605;SDS011;58173;52.500;5.494;2024-03-07T04:52:39;43.33;;;16.60;;
70605;SDS011;58173;52.500;5.494;2024-03-07T04:58:01;44.03;;;16.40;;
70605;SDS011;58173;52.500;5.494;2024-03-07T05:00:28;38.58;;;15.65;;
70605;SDS011;58173;52.500;5.494;2024-03-07T05:02:57;42.70;;;15.90;;
70605;SDS011;58173;52.500;5.494;2024-03-07T05:05:24;43.33;;;15.93;;
70605;SDS011;58173;52.500;5.494;2024-03-07T05:07:53;43.42;;;16.88;;
70605;SDS011;58173;52.500;5.494;2024-03-07T05:10:21;38.95;;;15.80;;
70605;SDS011;58173;52.500;5.494;2024-03-07T05:12:49;38.28;;;13.55;;
70605;SDS011;58173;52.500;5.494;2024-03-07T05:15:16;43.75;;;16.05;;
70605;SDS011;58173;52.500;5.494;2024-03-07T05:17:44;45.30;;;16.23;;
70605;SDS011;58173;52.500;5.494;2024-03-07T05:20:11;45.83;;;16.83;;
70605;SDS011;58173;52.500;5.494;2024-03-07T05:22:39;41.38;;;15.30;;
70605;SDS011;58173;52.500;5.494;2024-03-07T05:25:11;43.08;;;16.38;;
70605;SDS011;58173;52.500;5.494;2024-03-07T05:27:38;36.20;;;12.75;;
70605;SDS011;58173;52.500;5.494;2024-03-07T05:30:05;40.78;;;15.60;;
70605;SDS011;58173;52.500;5.494;2024-03-07T05:32:36;38.65;;;15.00;;
70605;SDS011;58173;52.500;5.494;2024-03-07T05:35:04;41.75;;;15.57;;
70605;SDS011;58173;52.500;5.494;2024-03-07T05:37:32;46.03;;;16.10;;
70605;SDS011;58173;52.500;5.494;2024-03-07T05:39:59;35.70;;;14.68;;
70605;SDS011;58173;52.500;5.494;2024-03-07T05:42:28;38.17;;;13.70;;
70605;SDS011;58173;52.500;5.494;2024-03-07T05:44:56;37.22;;;14.18;;
70605;SDS011;58173;52.500;5.494;2024-03-07T05:47:23;37.40;;;14.13;;
70605;SDS011;58173;52.500;5.494;2024-03-07T05:49:50;39.10;;;14.70;;
70605;SDS011;58173;52.500;5.494;2024-03-07T05:52:17;38.33;;;14.57;;
70605;SDS011;58173;52.500;5.494;2024-03-07T05:54:45;40.67;;;14.85;;
70605;SDS011;58173;52.500;5.494;2024-03-07T05:57:12;37.83;;;13.73;;
70605;SDS011;58173;52.500;5.494;2024-03-07T06:02:41;36.17;;;13.30;;
70605;SDS011;58173;52.500;5.494;2024-03-07T06:05:19;31.27;;;11.82;;
70605;SDS011;58173;52.500;5.494;2024-03-07T06:07:46;41.13;;;15.57;;
70605;SDS011;58173;52.500;5.494;2024-03-07T06:10:15;33.05;;;12.95;;
70605;SDS011;58173;52.500;5.494;2024-03-07T06:12:43;28.08;;;10.60;;
70605;SDS011;58173;52.500;5.494;2024-03-07T06:15:30;34.65;;;14.10;;
70605;SDS011;58173;52.500;5.494;2024-03-07T06:17:57;32.28;;;13.00;;
70605;SDS011;58173;52.500;5.494;2024-03-07T06:20:26;27.88;;;11.00;;
70605;SDS011;58173;52.500;5.494;2024-03-07T06:22:53;34.10;;;11.88;;
70605;SDS011;58173;52.500;5.494;2024-03-07T06:25:20;35.00;;;13.95;;
70605;SDS011;58173;52.500;5.494;2024-03-07T06:28:03;27.40;;;11.00;;
70605;SDS011;58173;52.500;5.494;2024-03-07T06:30:41;25.50;;;9.40;;
70605;SDS011;58173;52.500;5.494;2024-03-07T06:33:11;35.47;;;12.68;;
70605;SDS011;58173;52.500;5.494;2024-03-07T06:35:43;32.28;;;12.90;;
70605;SDS011;58173;52.500;5.494;2024-03-07T06:38:10;30.83;;;13.38;;
70605;SDS011;58173;52.500;5.494;2024-03-07T06:40:38;31.55;;;12.30;;
70605;SDS011;58173;52.500;5.494;2024-03-07T06:43:09;35.42;;;13.57;;
70605;SDS011;58173;52.500;5.494;2024-03-07T06:45:37;33.92;;;13.07;;
70605;SDS011;58173;52.500;5.494;2024-03-07T06:48:04;33.35;;;13.02;;
70605;SDS011;58173;52.500;5.494;2024-03-07T06:50:34;28.15;;;11.43;;
70605;SDS011;58173;52.500;5.494;2024-03-07T06:53:04;33.58;;;13.38;;
70605;SDS011;58173;52.500;5.494;2024-03-07T06:55:35;35.78;;;13.07;;
70605;SDS011;58173;52.500;5.494;2024-03-07T06:58:04;30.88;;;11.45;;
70605;SDS011;58173;52.500;5.494;2024-03-07T07:00:32;27.85;;;10.88;;
70605;SDS011;58173;52.500;5.494;2024-03-07T07:03:04;31.25;;;12.73;;
70605;SDS011;58173;52.500;5.494;2024-03-07T07:05:32;32.28;;;12.77;;
70605;SDS011;58173;52.500;5.494;2024-03-07T07:08:00;25.92;;;10.05;;
70605;SDS011;58173;52.500;5.494;2024-03-07T07:10:28;30.05;;;11.88;;
70605;SDS011;58173;52.500;5.494;2024-03-07T07:12:56;35.58;;;12.77;;
70605;SDS011;58173;52.500;5.494;2024-03-07T07:15:23;33.88;;;12.10;;
70605;SDS011;58173;52.500;5.494;2024-03-07T07:17:50;30.70;;;12.98;;
70605;SDS011;58173;52.500;5.494;2024-03-07T07:20:19;25.55;;;10.45;;
70605;SDS011;58173;52.500;5.494;2024-03-07T07:22:46;29.42;;;12.05;;
70605;SDS011;58173;52.500;5.494;2024-03-07T07:25:13;30.23;;;11.45;;
70605;SDS011;58173;52.500;5.494;2024-03-07T07:27:45;28.42;;;10.85;;
70605;SDS011;58173;52.500;5.494;2024-03-07T07:32:45;24.33;;;9.63;;
70605;SDS011;58173;52.500;5.494;2024-03-07T07:35:13;22.55;;;8.45;;
70605;SDS011;58173;52.500;5.494;2024-03-07T07:37:41;20.95;;;8.25;;
70605;SDS011;58173;52.500;5.494;2024-03-07T07:40:10;28.77;;;11.55;;
70605;SDS011;58173;52.500;5.494;2024-03-07T07:42:41;28.08;;;10.77;;
70605;SDS011;58173;52.500;5.494;2024-03-07T07:45:08;28.30;;;10.95;;
70605;SDS011;58173;52.500;5.494;2024-03-07T07:47:41;28.08;;;10.35;;
70605;SDS011;58173;52.500;5.494;2024-03-07T07:50:09;29.55;;;12.27;;
70605;SDS011;58173;52.500;5.494;2024-03-07T07:52:40;18.33;;;7.38;;
70605;SDS011;58173;52.500;5.494;2024-03-07T07:55:08;27.75;;;11.57;;
70605;SDS011;58173;52.500;5.494;2024-03-07T07:57:42;26.42;;;9.80;;
70605;SDS011;58173;52.500;5.494;2024-03-07T08:00:13;27.67;;;11.20;;
70605;SDS011;58173;52.500;5.494;2024-03-07T08:05:28;28.60;;;11.65;;
70605;SDS011;58173;52.500;5.494;2024-03-07T08:07:56;28.40;;;10.95;;
70605;SDS011;58173;52.500;5.494;2024-03-07T08:10:25;30.73;;;11.88;;
70605;SDS011;58173;52.500;5.494;2024-03-07T08:12:55;19.77;;;8.05;;
70605;SDS011;58173;52.500;5.494;2024-03-07T08:15:25;14.25;;;5.72;;
70605;SDS011;58173;52.500;5.494;2024-03-07T08:17:52;27.42;;;10.82;;
70605;SDS011;58173;52.500;5.494;2024-03-07T08:20:21;17.45;;;7.55;;
70605;SDS011;58173;52.500;5.494;2024-03-07T08:22:50;26.83;;;10.95;;
70605;SDS011;58173;52.500;5.494;2024-03-07T08:25:25;22.27;;;9.40;;
70605;SDS011;58173;52.500;5.494;2024-03-07T08:27:54;22.23;;;8.32;;
70605;SDS011;58173;52.500;5.494;2024-03-07T08:30:22;18.98;;;6.93;;
70605;SDS011;58173;52.500;5.494;2024-03-07T08:32:51;16.13;;;7.07;;
70605;SDS011;58173;52.500;5.494;2024-03-07T08:35:19;16.20;;;7.07;;
70605;SDS011;58173;52.500;5.494;2024-03-07T08:37:47;23.80;;;8.70;;
70605;SDS011;58173;52.500;5.494;2024-03-07T08:40:22;20.67;;;7.88;;
70605;SDS011;58173;52.500;5.494;2024-03-07T08:42:54;22.95;;;9.20;;
70605;SDS011;58173;52.500;5.494;2024-03-07T08:45:24;14.65;;;6.22;;
70605;SDS011;58173;52.500;5.494;2024-03-07T08:47:53;25.90;;;10.32;;
70605;SDS011;58173;52.500;5.494;2024-03-07T08:50:25;23.27;;;8.60;;
70605;SDS011;58173;52.500;5.494;2024-03-07T08:52:53;13.80;;;6.22;;
70605;SDS011;58173;52.500;5.494;2024-03-07T08:55:22;15.65;;;6.13;;
70605;SDS011;58173;52.500;5.494;2024-03-07T08:57:49;25.33;;;9.93;;
70605;SDS011;58173;52.500;5.494;2024-03-07T09:00:17;27.77;;;12.05;;
70605;SDS011;58173;52.500;5.494;2024-03-07T09:02:57;29.25;;;10.30;;
70605;SDS011;58173;52.500;5.494;2024-03-07T09:05:27;13.77;;;6.43;;
70605;SDS011;58173;52.500;5.494;2024-03-07T09:07:55;28.05;;;11.63;;
70605;SDS011;58173;52.500;5.494;2024-03-07T09:10:23;30.63;;;12.48;;
70605;SDS011;58173;52.500;5.494;2024-03-07T09:12:52;27.08;;;11.25;;
70605;SDS011;58173;52.500;5.494;2024-03-07T09:15:21;17.40;;;7.43;;
70605;SDS011;58173;52.500;5.494;2024-03-07T09:17:50;20.90;;;9.07;;
70605;SDS011;58173;52.500;5.494;2024-03-07T09:20:18;27.75;;;10.40;;
70605;SDS011;58173;52.500;5.494;2024-03-07T09:22:46;23.58;;;10.35;;
70605;SDS011;58173;52.500;5.494;2024-03-07T09:25:15;21.48;;;10.07;;
70605;SDS011;58173;52.500;5.494;2024-03-07T09:27:43;17.63;;;6.90;;
70605;SDS011;58173;52.500;5.494;2024-03-07T09:30:10;22.10;;;9.65;;
70605;SDS011;58173;52.500;5.494;2024-03-07T09:32:50;21.30;;;8.80;;
70605;SDS011;58173;52.500;5.494;2024-03-07T09:35:18;16.13;;;6.85;;
70605;SDS011;58173;52.500;5.494;2024-03-07T09:37:45;17.85;;;8.43;;
70605;SDS011;58173;52.500;5.494;2024-03-07T09:40:12;18.63;;;7.60;;
70605;SDS011;58173;52.500;5.494;2024-03-07T09:42:45;18.08;;;7.60;;
70605;SDS011;58173;52.500;5.494;2024-03-07T09:45:15;16.30;;;6.80;;
70605;SDS011;58173;52.500;5.494;2024-03-07T09:47:47;18.10;;;8.07;;
70605;SDS011;58173;52.500;5.494;2024-03-07T09:50:17;16.15;;;7.18;;
70605;SDS011;58173;52.500;5.494;2024-03-07T09:52:54;19.75;;;7.78;;
70605;SDS011;58173;52.500;5.494;2024-03-07T09:55:22;18.80;;;7.72;;
70605;SDS011;58173;52.500;5.494;2024-03-07T09:57:52;17.42;;;7.05;;
70605;SDS011;58173;52.500;5.494;2024-03-07T10:02:56;17.77;;;7.22;;
70605;SDS011;58173;52.500;5.494;2024-03-07T10:05:26;20.02;;;8.30;;
70605;SDS011;58173;52.500;5.494;2024-03-07T10:07:53;18.92;;;7.05;;
70605;SDS011;58173;52.500;5.494;2024-03-07T10:10:21;20.05;;;8.40;;
70605;SDS011;58173;52.500;5.494;2024-03-07T10:12:49;13.65;;;5.75;;
70605;SDS011;58173;52.500;5.494;2024-03-07T10:15:18;20.88;;;8.30;;
70605;SDS011;58173;52.500;5.494;2024-03-07T10:17:46;17.80;;;7.07;;
70605;SDS011;58173;52.500;5.494;2024-03-07T10:20:14;15.73;;;7.05;;
70605;SDS011;58173;52.500;5.494;2024-03-07T10:22:44;17.90;;;7.35;;
70605;SDS011;58173;52.500;5.494;2024-03-07T10:25:12;13.00;;;5.43;;
70605;SDS011;58173;52.500;5.494;2024-03-07T10:27:40;12.95;;;5.65;;
70605;SDS011;58173;52.500;5.494;2024-03-07T10:30:08;21.45;;;8.82;;
70605;SDS011;58173;52.500;5.494;2024-03-07T10:32:36;22.00;;;9.30;;
70605;SDS011;58173;52.500;5.494;2024-03-07T10:35:03;22.08;;;9.15;;
70605;SDS011;58173;52.500;5.494;2024-03-07T10:37:34;9.93;;;4.95;;
70605;SDS011;58173;52.500;5.494;2024-03-07T10:40:02;18.90;;;7.40;;
70605;SDS011;58173;52.500;5.494;2024-03-07T10:42:45;18.63;;;8.35;;
70605;SDS011;58173;52.500;5.494;2024-03-07T10:45:19;19.33;;;8.55;;
70605;SDS011;58173;52.500;5.494;2024-03-07T10:47:57;22.13;;;9.23;;
70605;SDS011;58173;52.500;5.494;2024-03-07T10:50:48;15.35;;;6.88;;
70605;SDS011;58173;52.500;5.494;2024-03-07T10:53:32;20.88;;;8.48;;
70605;SDS011;58173;52.500;5.494;2024-03-07T11:01:05;22.38;;;9.88;;
70605;SDS011;58173;52.500;5.494;2024-03-07T11:03:34;22.20;;;9.15;;
70605;SDS011;58173;52.500;5.494;2024-03-07T11:06:02;17.20;;;6.93;;
70605;SDS011;58173;52.500;5.494;2024-03-07T11:08:33;21.23;;;9.43;;
70605;SDS011;58173;52.500;5.494;2024-03-07T11:11:01;15.55;;;6.43;;
70605;SDS011;58173;52.500;5.494;2024-03-07T11:13:29;17.35;;;7.78;;
70605;SDS011;58173;52.500;5.494;2024-03-07T11:15:56;21.48;;;9.50;;
70605;SDS011;58173;52.500;5.494;2024-03-07T11:18:26;18.90;;;7.82;;
70605;SDS011;58173;52.500;5.494;2024-03-07T11:20:54;24.88;;;10.68;;
70605;SDS011;58173;52.500;5.494;2024-03-07T11:23:25;22.55;;;10.10;;
70605;SDS011;58173;52.500;5.494;2024-03-07T11:28:36;22.52;;;10.75;;
70605;SDS011;58173;52.500;5.494;2024-03-07T11:31:46;26.02;;;10.18;;
70605;SDS011;58173;52.500;5.494;2024-03-07T11:34:13;25.15;;;11.20;;
70605;SDS011;58173;52.500;5.494;2024-03-07T11:36:41;24.88;;;10.40;;
70605;SDS011;58173;52.500;5.494;2024-03-07T11:39:38;18.42;;;8.32;;
70605;SDS011;58173;52.500;5.494;2024-03-07T11:42:02;22.77;;;9.48;;
70605;SDS011;58173;52.500;5.494;2024-03-07T11:44:32;25.27;;;10.85;;
70605;SDS011;58173;52.500;5.494;2024-03-07T11:47:01;23.20;;;9.80;;
70605;SDS011;58173;52.500;5.494;2024-03-07T11:49:35;15.38;;;6.93;;
70605;SDS011;58173;52.500;5.494;2024-03-07T11:52:03;21.30;;;9.70;;
70605;SDS011;58173;52.500;5.494;2024-03-07T11:54:30;25.20;;;10.90;;
70605;SDS011;58173;52.500;5.494;2024-03-07T11:56:58;20.73;;;9.48;;
70605;SDS011;58173;52.500;5.494;2024-03-07T11:59:26;21.45;;;9.48;;
70605;SDS011;58173;52.500;5.494;2024-03-07T12:01:58;17.65;;;7.07;;
70605;SDS011;58173;52.500;5.494;2024-03-07T12:04:27;26.45;;;12.60;;
70605;SDS011;58173;52.500;5.494;2024-03-07T12:06:54;17.58;;;7.65;;
70605;SDS011;58173;52.500;5.494;2024-03-07T12:09:22;23.77;;;9.23;;
70605;SDS011;58173;52.500;5.494;2024-03-07T12:11:50;22.17;;;9.80;;
70605;SDS011;58173;52.500;5.494;2024-03-07T12:14:19;24.02;;;10.50;;
70605;SDS011;58173;52.500;5.494;2024-03-07T12:16:46;22.88;;;10.70;;
70605;SDS011;58173;52.500;5.494;2024-03-07T12:19:14;24.65;;;10.18;;
70605;SDS011;58173;52.500;5.494;2024-03-07T12:21:43;26.25;;;9.90;;
70605;SDS011;58173;52.500;5.494;2024-03-07T12:24:13;16.02;;;7.07;;
70605;SDS011;58173;52.500;5.494;2024-03-07T12:26:44;23.90;;;10.95;;
70605;SDS011;58173;52.500;5.494;2024-03-07T12:29:12;26.33;;;11.50;;
70605;SDS011;58173;52.500;5.494;2024-03-07T12:31:39;24.00;;;11.10;;
70605;SDS011;58173;52.500;5.494;2024-03-07T12:34:06;24.15;;;10.90;;
70605;SDS011;58173;52.500;5.494;2024-03-07T12:36:37;20.65;;;9.05;;
70605;SDS011;58173;52.500;5.494;2024-03-07T12:39:23;24.83;;;10.85;;
70605;SDS011;58173;52.500;5.494;2024-03-07T12:41:57;24.70;;;10.55;;
70605;SDS011;58173;52.500;5.494;2024-03-07T12:44:25;24.85;;;11.10;;
70605;SDS011;58173;52.500;5.494;2024-03-07T12:46:52;25.30;;;10.50;;
70605;SDS011;58173;52.500;5.494;2024-03-07T12:49:22;24.27;;;10.75;;
70605;SDS011;58173;52.500;5.494;2024-03-07T12:51:53;24.73;;;10.13;;
70605;SDS011;58173;52.500;5.494;2024-03-07T12:54:20;23.80;;;9.85;;
70605;SDS011;58173;52.500;5.494;2024-03-07T12:56:48;24.08;;;10.20;;
70605;SDS011;58173;52.500;5.494;2024-03-07T12:59:16;23.90;;;10.15;;
70605;SDS011;58173;52.500;5.494;2024-03-07T13:01:45;23.98;;;10.15;;
70605;SDS011;58173;52.500;5.494;2024-03-07T13:04:14;17.58;;;6.55;;
70605;SDS011;58173;52.500;5.494;2024-03-07T13:06:42;15.73;;;7.47;;
70605;SDS011;58173;52.500;5.494;2024-03-07T13:09:13;18.70;;;7.53;;
70605;SDS011;58173;52.500;5.494;2024-03-07T13:11:41;18.67;;;7.47;;
70605;SDS011;58173;52.500;5.494;2024-03-07T13:14:13;16.23;;;6.60;;
70605;SDS011;58173;52.500;5.494;2024-03-07T13:16:40;18.35;;;8.25;;
70605;SDS011;58173;52.500;5.494;2024-03-07T13:19:09;20.08;;;8.00;;
70605;SDS011;58173;52.500;5.494;2024-03-07T13:21:38;21.23;;;9.27;;
70605;SDS011;58173;52.500;5.494;2024-03-07T13:24:06;22.73;;;9.63;;
70605;SDS011;58173;52.500;5.494;2024-03-07T13:26:35;20.48;;;8.57;;
70605;SDS011;58173;52.500;5.494;2024-03-07T13:29:02;14.70;;;6.95;;
70605;SDS011;58173;52.500;5.494;2024-03-07T13:31:30;20.90;;;8.82;;
70605;SDS011;58173;52.500;5.494;2024-03-07T13:33:59;23.48;;;10.43;;
70605;SDS011;58173;52.500;5.494;2024-03-07T13:36:28;21.98;;;8.82;;
70605;SDS011;58173;52.500;5.494;2024-03-07T13:38:56;22.35;;;9.20;;
70605;SDS011;58173;52.500;5.494;2024-03-07T13:41:24;18.85;;;9.07;;
70605;SDS011;58173;52.500;5.494;2024-03-07T13:43:54;14.23;;;6.47;;
70605;SDS011;58173;52.500;5.494;2024-03-07T13:46:22;14.98;;;6.40;;
70605;SDS011;58173;52.500;5.494;2024-03-07T13:48:49;18.52;;;7.78;;
70605;SDS011;58173;52.500;5.494;2024-03-07T13:51:18;13.68;;;6.10;;
70605;SDS011;58173;52.500;5.494;2024-03-07T13:53:46;16.10;;;6.28;;
70605;SDS011;58173;52.500;5.494;2024-03-07T14:04:24;17.05;;;7.78;;
70605;SDS011;58173;52.500;5.494;2024-03-07T14:07:08;18.27;;;8.40;;
70605;SDS011;58173;52.500;5.494;2024-03-07T14:09:45;11.43;;;4.75;;
70605;SDS011;58173;52.500;5.494;2024-03-07T14:12:39;12.55;;;5.35;;
70605;SDS011;58173;52.500;5.494;2024-03-07T14:15:29;17.58;;;7.78;;
70605;SDS011;58173;52.500;5.494;2024-03-07T14:20:44;20.00;;;8.45;;
70605;SDS011;58173;52.500;5.494;2024-03-07T14:31:44;14.77;;;6.50;;
70605;SDS011;58173;52.500;5.494;2024-03-07T14:37:03;14.45;;;5.78;;
70605;SDS011;58173;52.500;5.494;2024-03-07T14:39:32;19.75;;;7.50;;
70605;SDS011;58173;52.500;5.494;2024-03-07T14:42:01;19.83;;;8.57;;
70605;SDS011;58173;52.500;5.494;2024-03-07T14:44:30;19.73;;;8.70;;
70605;SDS011;58173;52.500;5.494;2024-03-07T14:47:03;19.27;;;8.32;;
70605;SDS011;58173;52.500;5.494;2024-03-07T14:49:33;20.73;;;9.30;;
70605;SDS011;58173;52.500;5.494;2024-03-07T14:52:01;21.52;;;9.95;;
70605;SDS011;58173;52.500;5.494;2024-03-07T14:54:29;17.10;;;7.45;;
70605;SDS011;58173;52.500;5.494;2024-03-07T14:56:57;20.52;;;8.40;;
70605;SDS011;58173;52.500;5.494;2024-03-07T14:59:25;19.73;;;8.93;;
70605;SDS011;58173;52.500;5.494;2024-03-07T15:01:52;21.48;;;9.50;;
70605;SDS011;58173;52.500;5.494;2024-03-07T15:04:20;20.10;;;8.77;;
70605;SDS011;58173;52.500;5.494;2024-03-07T15:06:47;18.30;;;8.15;;
70605;SDS011;58173;52.500;5.494;2024-03-07T15:09:14;17.73;;;7.57;;
70605;SDS011;58173;52.500;5.494;2024-03-07T15:11:43;18.30;;;8.40;;
70605;SDS011;58173;52.500;5.494;2024-03-07T15:14:12;21.52;;;9.10;;
70605;SDS011;58173;52.500;5.494;2024-03-07T15:16:41;18.90;;;8.23;;
70605;SDS011;58173;52.500;5.494;2024-03-07T15:19:09;17.58;;;6.60;;
70605;SDS011;58173;52.500;5.494;2024-03-07T15:21:36;17.02;;;7.00;;
70605;SDS011;58173;52.500;5.494;2024-03-07T15:24:04;18.08;;;7.65;;